sensor_id;sensor_type;location;lat;lon;timestamp;P1;durP1;ratioP1;P2;durP2;ratioP2
75160;SDS011;63738;50.096;8.716;2022-11-20T00:00:02;5.97;;;0.20;;
75160;SDS011;63738;50.096;8.716;2022-11-20T00:02:28;5.55;;;0.22;;
75160;SDS011;63738;50.096;8.716;2022-11-20T00:04:54;5.13;;;0.45;;
75160;SDS011;63738;50.096;8.716;2022-11-20T00:07:20;4.40;;;0.25;;
75160;SDS011;63738;50.096;8.716;2022-11-20T00:09:46;6.07;;;0.30;;
75160;SDS011;63738;50.096;8.716;2022-11-20T00:12:11;5.38;;;0.28;;
75160;SDS011;63738;50.096;8.716;2022-11-20T00:14:37;4.93;;;0.20;;
75160;SDS011;63738;50.096;8.716;2022-11-20T00:17:03;5.30;;;0.15;;
75160;SDS011;63738;50.096;8.716;2022-11-20T00:19:28;5.68;;;0.40;;
75160;SDS011;63738;50.096;8.716;2022-11-20T00:21:54;7.47;;;0.38;;
75160;SDS011;63738;50.096;8.716;2022-11-20T00:24:20;7.32;;;0.63;;
75160;SDS011;63738;50.096;8.716;2022-11-20T00:26:46;6.57;;;0.73;;
75160;SDS011;63738;50.096;8.716;2022-11-20T00:29:11;5.68;;;0.57;;
75160;SDS011;63738;50.096;8.716;2022-11-20T00:31:37;8.07;;;0.60;;
75160;SDS011;63738;50.096;8.716;2022-11-20T00:34:03;5.30;;;0.35;;
75160;SDS011;63738;50.096;8.716;2022-11-20T00:36:31;6.20;;;0.57;;
75160;SDS011;63738;50.096;8.716;2022-11-20T00:38:58;5.32;;;0.28;;
75160;SDS011;63738;50.096;8.716;2022-11-20T00:41:24;3.90;;;0.13;;
75160;SDS011;63738;50.096;8.716;2022-11-20T00:43:52;6.90;;;0.43;;
75160;SDS011;63738;50.096;8.716;2022-11-20T00:46:20;3.53;;;0.22;;
75160;SDS011;63738;50.096;8.716;2022-11-20T00:48:50;7.47;;;0.32;;
75160;SDS011;63738;50.096;8.716;2022-11-20T00:51:19;6.03;;;0.20;;
75160;SDS011;63738;50.096;8.716;2022-11-20T00:53:47;6.57;;;0.22;;
75160;SDS011;63738;50.096;8.716;2022-11-20T00:56:13;4.93;;;0.30;;
75160;SDS011;63738;50.096;8.716;2022-11-20T00:58:41;5.65;;;0.28;;
75160;SDS011;63738;50.096;8.716;2022-11-20T01:01:26;4.20;;;0.15;;
75160;SDS011;63738;50.096;8.716;2022-11-20T01:03:54;6.60;;;0.30;;
75160;SDS011;63738;50.096;8.716;2022-11-20T01:06:24;5.50;;;0.30;;
75160;SDS011;63738;50.096;8.716;2022-11-20T01:08:52;5.55;;;0.50;;
75160;SDS011;63738;50.096;8.716;2022-11-20T01:11:21;7.93;;;0.60;;
75160;SDS011;63738;50.096;8.716;2022-11-20T01:13:52;7.85;;;0.75;;
75160;SDS011;63738;50.096;8.716;2022-11-20T01:16:19;6.43;;;0.40;;
75160;SDS011;63738;50.096;8.716;2022-11-20T01:18:48;6.97;;;0.30;;
75160;SDS011;63738;50.096;8.716;2022-11-20T01:21:16;6.22;;;0.17;;
75160;SDS011;63738;50.096;8.716;2022-11-20T01:23:47;6.82;;;0.30;;
75160;SDS011;63738;50.096;8.716;2022-11-20T01:28:40;5.03;;;0.22;;
75160;SDS011;63738;50.096;8.716;2022-11-20T01:31:17;4.10;;;0.17;;
75160;SDS011;63738;50.096;8.716;2022-11-20T01:33:43;6.25;;;0.30;;
75160;SDS011;63738;50.096;8.716;2022-11-20T01:36:09;6.95;;;0.40;;
75160;SDS011;63738;50.096;8.716;2022-11-20T01:41:01;4.75;;;0.30;;
75160;SDS011;63738;50.096;8.716;2022-11-20T01:43:27;6.95;;;0.38;;
75160;SDS011;63738;50.096;8.716;2022-11-20T01:48:22;5.85;;;0.25;;
75160;SDS011;63738;50.096;8.716;2022-11-20T01:50:51;6.00;;;0.40;;
75160;SDS011;63738;50.096;8.716;2022-11-20T01:53:18;5.20;;;0.25;;
75160;SDS011;63738;50.096;8.716;2022-11-20T01:55:49;6.80;;;0.28;;
75160;SDS011;63738;50.096;8.716;2022-11-20T01:58:18;5.93;;;0.47;;
75160;SDS011;63738;50.096;8.716;2022-11-20T02:00:46;6.78;;;0.20;;
75160;SDS011;63738;50.096;8.716;2022-11-20T02:03:12;5.22;;;0.25;;
75160;SDS011;63738;50.096;8.716;2022-11-20T02:08:26;4.72;;;0.30;;
75160;SDS011;63738;50.096;8.716;2022-11-20T02:10:53;7.07;;;0.50;;
75160;SDS011;63738;50.096;8.716;2022-11-20T02:13:19;6.25;;;0.30;;
75160;SDS011;63738;50.096;8.716;2022-11-20T02:16:03;5.57;;;0.25;;
75160;SDS011;63738;50.096;8.716;2022-11-20T02:18:33;5.57;;;0.50;;
75160;SDS011;63738;50.096;8.716;2022-11-20T02:20:59;7.95;;;0.43;;
75160;SDS011;63738;50.096;8.716;2022-11-20T02:26:33;8.02;;;0.50;;
75160;SDS011;63738;50.096;8.716;2022-11-20T02:29:16;8.45;;;0.55;;
75160;SDS011;63738;50.096;8.716;2022-11-20T02:31:49;7.32;;;0.50;;
75160;SDS011;63738;50.096;8.716;2022-11-20T02:34:16;7.30;;;0.43;;
75160;SDS011;63738;50.096;8.716;2022-11-20T02:36:42;4.75;;;0.25;;
75160;SDS011;63738;50.096;8.716;2022-11-20T02:39:08;6.75;;;0.03;;
75160;SDS011;63738;50.096;8.716;2022-11-20T02:41:37;7.80;;;0.30;;
75160;SDS011;63738;50.096;8.716;2022-11-20T02:44:03;8.90;;;0.40;;
75160;SDS011;63738;50.096;8.716;2022-11-20T02:46:30;6.43;;;0.60;;
75160;SDS011;63738;50.096;8.716;2022-11-20T02:48:56;5.68;;;0.10;;
75160;SDS011;63738;50.096;8.716;2022-11-20T02:51:22;5.85;;;0.30;;
75160;SDS011;63738;50.096;8.716;2022-11-20T02:56:56;4.13;;;0.17;;
75160;SDS011;63738;50.096;8.716;2022-11-20T02:59:22;6.68;;;0.68;;
75160;SDS011;63738;50.096;8.716;2022-11-20T03:01:47;6.88;;;0.57;;
75160;SDS011;63738;50.096;8.716;2022-11-20T03:04:13;5.35;;;0.43;;
75160;SDS011;63738;50.096;8.716;2022-11-20T03:06:38;9.73;;;0.80;;
75160;SDS011;63738;50.096;8.716;2022-11-20T03:09:04;9.40;;;0.60;;
75160;SDS011;63738;50.096;8.716;2022-11-20T03:11:30;7.10;;;0.22;;
75160;SDS011;63738;50.096;8.716;2022-11-20T03:13:55;7.32;;;0.52;;
75160;SDS011;63738;50.096;8.716;2022-11-20T03:16:22;6.10;;;0.15;;
75160;SDS011;63738;50.096;8.716;2022-11-20T03:21:14;4.68;;;0.20;;
75160;SDS011;63738;50.096;8.716;2022-11-20T03:23:40;5.30;;;0.30;;
75160;SDS011;63738;50.096;8.716;2022-11-20T03:26:07;6.15;;;0.60;;
75160;SDS011;63738;50.096;8.716;2022-11-20T03:28:34;5.57;;;0.40;;
75160;SDS011;63738;50.096;8.716;2022-11-20T03:31:04;4.80;;;0.10;;
75160;SDS011;63738;50.096;8.716;2022-11-20T03:33:31;6.38;;;0.40;;
75160;SDS011;63738;50.096;8.716;2022-11-20T03:36:00;4.93;;;0.32;;
75160;SDS011;63738;50.096;8.716;2022-11-20T03:41:03;5.57;;;0.47;;
75160;SDS011;63738;50.096;8.716;2022-11-20T03:43:30;5.72;;;0.32;;
75160;SDS011;63738;50.096;8.716;2022-11-20T03:45:56;5.53;;;0.35;;
75160;SDS011;63738;50.096;8.716;2022-11-20T03:48:22;5.35;;;0.25;;
75160;SDS011;63738;50.096;8.716;2022-11-20T03:50:47;8.30;;;0.55;;
75160;SDS011;63738;50.096;8.716;2022-11-20T03:53:14;5.75;;;0.20;;
75160;SDS011;63738;50.096;8.716;2022-11-20T03:55:40;7.05;;;0.40;;
75160;SDS011;63738;50.096;8.716;2022-11-20T03:58:06;6.82;;;0.40;;
75160;SDS011;63738;50.096;8.716;2022-11-20T04:00:31;6.35;;;0.17;;
75160;SDS011;63738;50.096;8.716;2022-11-20T04:02:57;8.57;;;0.43;;
75160;SDS011;63738;50.096;8.716;2022-11-20T04:05:24;7.43;;;0.30;;
75160;SDS011;63738;50.096;8.716;2022-11-20T04:07:49;4.93;;;0.32;;
75160;SDS011;63738;50.096;8.716;2022-11-20T04:10:15;6.15;;;0.35;;
75160;SDS011;63738;50.096;8.716;2022-11-20T04:12:40;8.57;;;0.32;;
75160;SDS011;63738;50.096;8.716;2022-11-20T04:15:06;6.32;;;0.32;;
75160;SDS011;63738;50.096;8.716;2022-11-20T04:17:32;7.93;;;0.52;;
75160;SDS011;63738;50.096;8.716;2022-11-20T04:19:58;6.80;;;0.63;;
75160;SDS011;63738;50.096;8.716;2022-11-20T04:22:23;5.40;;;0.10;;
75160;SDS011;63738;50.096;8.716;2022-11-20T04:24:49;8.30;;;0.43;;
75160;SDS011;63738;50.096;8.716;2022-11-20T04:27:14;8.88;;;0.30;;
75160;SDS011;63738;50.096;8.716;2022-11-20T04:29:40;6.43;;;0.30;;
75160;SDS011;63738;50.096;8.716;2022-11-20T04:32:06;6.65;;;0.60;;
75160;SDS011;63738;50.096;8.716;2022-11-20T04:34:31;5.43;;;0.50;;
75160;SDS011;63738;50.096;8.716;2022-11-20T04:36:57;7.22;;;0.60;;
75160;SDS011;63738;50.096;8.716;2022-11-20T04:39:22;7.30;;;0.70;;
75160;SDS011;63738;50.096;8.716;2022-11-20T04:41:48;8.10;;;0.47;;
75160;SDS011;63738;50.096;8.716;2022-11-20T04:44:33;7.18;;;0.47;;
75160;SDS011;63738;50.096;8.716;2022-11-20T04:46:59;9.75;;;0.77;;
75160;SDS011;63738;50.096;8.716;2022-11-20T04:49:24;7.47;;;0.30;;
75160;SDS011;63738;50.096;8.716;2022-11-20T04:51:52;6.10;;;0.40;;
75160;SDS011;63738;50.096;8.716;2022-11-20T04:54:18;4.93;;;0.08;;
75160;SDS011;63738;50.096;8.716;2022-11-20T04:59:14;5.82;;;0.32;;
75160;SDS011;63738;50.096;8.716;2022-11-20T05:01:40;6.80;;;0.70;;
75160;SDS011;63738;50.096;8.716;2022-11-20T05:04:05;8.73;;;0.32;;
75160;SDS011;63738;50.096;8.716;2022-11-20T05:06:31;8.02;;;0.60;;
75160;SDS011;63738;50.096;8.716;2022-11-20T05:08:57;6.80;;;0.47;;
75160;SDS011;63738;50.096;8.716;2022-11-20T05:11:23;9.48;;;0.70;;
75160;SDS011;63738;50.096;8.716;2022-11-20T05:13:49;12.10;;;1.00;;
75160;SDS011;63738;50.096;8.716;2022-11-20T05:16:17;6.80;;;0.47;;
75160;SDS011;63738;50.096;8.716;2022-11-20T05:18:44;9.00;;;0.70;;
75160;SDS011;63738;50.096;8.716;2022-11-20T05:21:11;11.07;;;1.13;;
75160;SDS011;63738;50.096;8.716;2022-11-20T05:23:37;7.57;;;0.50;;
75160;SDS011;63738;50.096;8.716;2022-11-20T05:26:05;9.60;;;0.95;;
75160;SDS011;63738;50.096;8.716;2022-11-20T05:28:31;12.55;;;1.50;;
75160;SDS011;63738;50.096;8.716;2022-11-20T05:33:31;9.95;;;1.05;;
75160;SDS011;63738;50.096;8.716;2022-11-20T05:36:01;5.90;;;0.30;;
75160;SDS011;63738;50.096;8.716;2022-11-20T05:38:29;7.40;;;0.38;;
75160;SDS011;63738;50.096;8.716;2022-11-20T05:41:02;7.75;;;0.70;;
75160;SDS011;63738;50.096;8.716;2022-11-20T05:43:31;9.65;;;0.40;;
75160;SDS011;63738;50.096;8.716;2022-11-20T05:46:01;11.30;;;0.95;;
75160;SDS011;63738;50.096;8.716;2022-11-20T05:48:27;8.23;;;0.70;;
75160;SDS011;63738;50.096;8.716;2022-11-20T05:50:53;9.60;;;0.68;;
75160;SDS011;63738;50.096;8.716;2022-11-20T05:53:18;7.50;;;0.40;;
75160;SDS011;63738;50.096;8.716;2022-11-20T05:55:44;8.48;;;0.75;;
75160;SDS011;63738;50.096;8.716;2022-11-20T05:58:10;10.57;;;0.80;;
75160;SDS011;63738;50.096;8.716;2022-11-20T06:00:35;7.07;;;0.43;;
75160;SDS011;63738;50.096;8.716;2022-11-20T06:03:01;7.35;;;0.57;;
75160;SDS011;63738;50.096;8.716;2022-11-20T06:05:27;43.67;;;8.55;;
75160;SDS011;63738;50.096;8.716;2022-11-20T06:07:53;79.63;;;18.00;;
75160;SDS011;63738;50.096;8.716;2022-11-20T06:10:18;82.88;;;18.02;;
75160;SDS011;63738;50.096;8.716;2022-11-20T06:12:44;51.28;;;10.52;;
75160;SDS011;63738;50.096;8.716;2022-11-20T06:15:10;28.58;;;5.28;;
75160;SDS011;63738;50.096;8.716;2022-11-20T06:17:36;65.88;;;13.82;;
75160;SDS011;63738;50.096;8.716;2022-11-20T06:20:02;10.60;;;2.08;;
75160;SDS011;63738;50.096;8.716;2022-11-20T06:22:28;9.00;;;0.85;;
75160;SDS011;63738;50.096;8.716;2022-11-20T06:24:53;50.80;;;11.90;;
75160;SDS011;63738;50.096;8.716;2022-11-20T06:27:19;28.00;;;6.47;;
75160;SDS011;63738;50.096;8.716;2022-11-20T06:29:44;18.75;;;3.35;;
75160;SDS011;63738;50.096;8.716;2022-11-20T06:32:10;34.38;;;7.40;;
75160;SDS011;63738;50.096;8.716;2022-11-20T06:34:36;24.45;;;4.53;;
75160;SDS011;63738;50.096;8.716;2022-11-20T06:37:01;47.83;;;10.45;;
75160;SDS011;63738;50.096;8.716;2022-11-20T06:39:27;40.50;;;8.10;;
75160;SDS011;63738;50.096;8.716;2022-11-20T06:41:52;19.35;;;2.55;;
75160;SDS011;63738;50.096;8.716;2022-11-20T06:44:18;10.98;;;1.02;;
75160;SDS011;63738;50.096;8.716;2022-11-20T06:46:43;21.95;;;4.43;;
75160;SDS011;63738;50.096;8.716;2022-11-20T06:49:09;37.80;;;6.80;;
75160;SDS011;63738;50.096;8.716;2022-11-20T06:51:34;31.98;;;7.05;;
75160;SDS011;63738;50.096;8.716;2022-11-20T06:54:00;24.38;;;4.80;;
75160;SDS011;63738;50.096;8.716;2022-11-20T06:56:26;23.27;;;4.30;;
75160;SDS011;63738;50.096;8.716;2022-11-20T06:58:51;16.52;;;2.08;;
75160;SDS011;63738;50.096;8.716;2022-11-20T07:01:17;13.30;;;1.30;;
75160;SDS011;63738;50.096;8.716;2022-11-20T07:03:43;12.80;;;1.48;;
75160;SDS011;63738;50.096;8.716;2022-11-20T07:06:08;15.73;;;1.65;;
75160;SDS011;63738;50.096;8.716;2022-11-20T07:08:34;7.95;;;1.00;;
75160;SDS011;63738;50.096;8.716;2022-11-20T07:11:01;7.63;;;0.52;;
75160;SDS011;63738;50.096;8.716;2022-11-20T07:13:29;7.13;;;0.43;;
75160;SDS011;63738;50.096;8.716;2022-11-20T07:15:58;9.30;;;0.88;;
75160;SDS011;63738;50.096;8.716;2022-11-20T07:18:26;6.75;;;0.50;;
75160;SDS011;63738;50.096;8.716;2022-11-20T07:20:51;10.50;;;1.00;;
75160;SDS011;63738;50.096;8.716;2022-11-20T07:23:17;8.98;;;0.68;;
75160;SDS011;63738;50.096;8.716;2022-11-20T07:25:43;7.68;;;0.85;;
75160;SDS011;63738;50.096;8.716;2022-11-20T07:28:08;7.32;;;0.45;;
75160;SDS011;63738;50.096;8.716;2022-11-20T07:30:35;9.93;;;0.75;;
75160;SDS011;63738;50.096;8.716;2022-11-20T07:33:01;8.05;;;0.75;;
75160;SDS011;63738;50.096;8.716;2022-11-20T07:35:26;8.45;;;0.65;;
75160;SDS011;63738;50.096;8.716;2022-11-20T07:37:52;8.10;;;0.73;;
75160;SDS011;63738;50.096;8.716;2022-11-20T07:40:18;9.57;;;1.10;;
75160;SDS011;63738;50.096;8.716;2022-11-20T07:42:48;9.05;;;0.60;;
75160;SDS011;63738;50.096;8.716;2022-11-20T07:45:14;10.57;;;0.82;;
75160;SDS011;63738;50.096;8.716;2022-11-20T07:47:40;11.02;;;1.10;;
75160;SDS011;63738;50.096;8.716;2022-11-20T07:50:06;9.30;;;1.23;;
75160;SDS011;63738;50.096;8.716;2022-11-20T07:52:32;8.18;;;0.75;;
75160;SDS011;63738;50.096;8.716;2022-11-20T07:54:58;9.80;;;0.82;;
75160;SDS011;63738;50.096;8.716;2022-11-20T07:57:23;12.27;;;1.35;;
75160;SDS011;63738;50.096;8.716;2022-11-20T07:59:49;10.35;;;0.75;;
75160;SDS011;63738;50.096;8.716;2022-11-20T08:02:14;9.20;;;1.10;;
75160;SDS011;63738;50.096;8.716;2022-11-20T08:04:40;13.73;;;1.60;;
75160;SDS011;63738;50.096;8.716;2022-11-20T08:07:05;10.55;;;0.63;;
75160;SDS011;63738;50.096;8.716;2022-11-20T08:09:31;13.95;;;1.35;;
75160;SDS011;63738;50.096;8.716;2022-11-20T08:11:57;10.05;;;0.77;;
75160;SDS011;63738;50.096;8.716;2022-11-20T08:14:41;12.70;;;1.33;;
75160;SDS011;63738;50.096;8.716;2022-11-20T08:17:07;10.80;;;0.80;;
75160;SDS011;63738;50.096;8.716;2022-11-20T08:19:33;9.43;;;0.85;;
75160;SDS011;63738;50.096;8.716;2022-11-20T08:21:58;8.68;;;0.38;;
75160;SDS011;63738;50.096;8.716;2022-11-20T08:24:24;8.85;;;0.88;;
75160;SDS011;63738;50.096;8.716;2022-11-20T08:26:51;6.00;;;0.50;;
75160;SDS011;63738;50.096;8.716;2022-11-20T08:29:17;11.40;;;0.93;;
75160;SDS011;63738;50.096;8.716;2022-11-20T08:31:43;7.15;;;0.50;;
75160;SDS011;63738;50.096;8.716;2022-11-20T08:34:09;7.05;;;0.60;;
75160;SDS011;63738;50.096;8.716;2022-11-20T08:36:34;9.02;;;0.68;;
75160;SDS011;63738;50.096;8.716;2022-11-20T08:39:00;9.50;;;0.40;;
75160;SDS011;63738;50.096;8.716;2022-11-20T08:41:26;8.63;;;0.65;;
75160;SDS011;63738;50.096;8.716;2022-11-20T08:43:55;7.65;;;0.63;;
75160;SDS011;63738;50.096;8.716;2022-11-20T08:46:23;9.38;;;0.60;;
75160;SDS011;63738;50.096;8.716;2022-11-20T08:48:50;10.65;;;0.90;;
75160;SDS011;63738;50.096;8.716;2022-11-20T08:51:16;24.98;;;4.75;;
75160;SDS011;63738;50.096;8.716;2022-11-20T08:56:08;9.05;;;0.52;;
75160;SDS011;63738;50.096;8.716;2022-11-20T08:58:34;12.80;;;1.20;;
75160;SDS011;63738;50.096;8.716;2022-11-20T09:01:00;8.85;;;0.60;;
75160;SDS011;63738;50.096;8.716;2022-11-20T09:03:26;12.20;;;0.85;;
75160;SDS011;63738;50.096;8.716;2022-11-20T09:06:02;7.70;;;0.70;;
75160;SDS011;63738;50.096;8.716;2022-11-20T09:08:29;10.77;;;1.20;;
75160;SDS011;63738;50.096;8.716;2022-11-20T09:10:56;10.80;;;0.98;;
75160;SDS011;63738;50.096;8.716;2022-11-20T09:13:23;11.48;;;1.10;;
75160;SDS011;63738;50.096;8.716;2022-11-20T09:15:52;9.45;;;1.00;;
75160;SDS011;63738;50.096;8.716;2022-11-20T09:18:19;14.52;;;1.77;;
75160;SDS011;63738;50.096;8.716;2022-11-20T09:20:45;13.68;;;1.77;;
75160;SDS011;63738;50.096;8.716;2022-11-20T09:23:10;9.65;;;0.93;;
75160;SDS011;63738;50.096;8.716;2022-11-20T09:25:36;15.30;;;1.90;;
75160;SDS011;63738;50.096;8.716;2022-11-20T09:28:02;9.77;;;0.98;;
75160;SDS011;63738;50.096;8.716;2022-11-20T09:30:27;8.43;;;0.88;;
75160;SDS011;63738;50.096;8.716;2022-11-20T09:32:53;7.40;;;0.85;;
75160;SDS011;63738;50.096;8.716;2022-11-20T09:35:18;7.45;;;0.75;;
75160;SDS011;63738;50.096;8.716;2022-11-20T09:37:44;7.68;;;0.60;;
75160;SDS011;63738;50.096;8.716;2022-11-20T09:40:20;7.47;;;0.52;;
75160;SDS011;63738;50.096;8.716;2022-11-20T09:42:59;7.25;;;0.55;;
75160;SDS011;63738;50.096;8.716;2022-11-20T09:56:37;7.72;;;0.73;;
75160;SDS011;63738;50.096;8.716;2022-11-20T09:59:06;9.30;;;0.95;;
75160;SDS011;63738;50.096;8.716;2022-11-20T10:01:38;11.45;;;1.08;;
75160;SDS011;63738;50.096;8.716;2022-11-20T10:04:15;9.48;;;0.93;;
75160;SDS011;63738;50.096;8.716;2022-11-20T10:06:47;7.82;;;0.63;;
75160;SDS011;63738;50.096;8.716;2022-11-20T10:09:39;9.77;;;0.93;;
75160;SDS011;63738;50.096;8.716;2022-11-20T10:12:18;7.28;;;0.55;;
75160;SDS011;63738;50.096;8.716;2022-11-20T10:15:07;6.38;;;0.50;;
75160;SDS011;63738;50.096;8.716;2022-11-20T10:20:41;11.23;;;1.05;;
75160;SDS011;63738;50.096;8.716;2022-11-20T10:25:56;8.63;;;0.68;;
75160;SDS011;63738;50.096;8.716;2022-11-20T10:32:04;9.63;;;1.10;;
75160;SDS011;63738;50.096;8.716;2022-11-20T10:37:11;9.93;;;1.33;;
75160;SDS011;63738;50.096;8.716;2022-11-20T10:42:08;12.93;;;1.77;;
75160;SDS011;63738;50.096;8.716;2022-11-20T10:44:39;8.60;;;0.88;;
75160;SDS011;63738;50.096;8.716;2022-11-20T10:47:28;10.90;;;1.42;;
75160;SDS011;63738;50.096;8.716;2022-11-20T10:49:57;12.43;;;1.33;;
75160;SDS011;63738;50.096;8.716;2022-11-20T10:58:11;14.70;;;1.63;;
75160;SDS011;63738;50.096;8.716;2022-11-20T11:00:41;27.15;;;4.80;;
75160;SDS011;63738;50.096;8.716;2022-11-20T11:03:27;16.90;;;2.55;;
75160;SDS011;63738;50.096;8.716;2022-11-20T11:05:56;12.68;;;1.70;;
75160;SDS011;63738;50.096;8.716;2022-11-20T11:08:40;18.40;;;2.20;;
75160;SDS011;63738;50.096;8.716;2022-11-20T11:13:47;10.00;;;1.13;;
75160;SDS011;63738;50.096;8.716;2022-11-20T11:16:19;9.95;;;0.80;;
75160;SDS011;63738;50.096;8.716;2022-11-20T11:18:47;11.00;;;1.30;;
75160;SDS011;63738;50.096;8.716;2022-11-20T11:21:12;7.60;;;0.80;;
75160;SDS011;63738;50.096;8.716;2022-11-20T11:23:45;8.98;;;0.70;;
75160;SDS011;63738;50.096;8.716;2022-11-20T11:26:23;8.93;;;0.77;;
75160;SDS011;63738;50.096;8.716;2022-11-20T11:28:58;11.80;;;1.40;;
75160;SDS011;63738;50.096;8.716;2022-11-20T11:31:29;7.13;;;0.73;;
75160;SDS011;63738;50.096;8.716;2022-11-20T11:34:06;12.90;;;1.27;;
75160;SDS011;63738;50.096;8.716;2022-11-20T11:36:33;8.43;;;0.47;;
75160;SDS011;63738;50.096;8.716;2022-11-20T11:39:00;9.48;;;1.15;;
75160;SDS011;63738;50.096;8.716;2022-11-20T11:41:28;11.40;;;1.25;;
75160;SDS011;63738;50.096;8.716;2022-11-20T11:44:15;8.05;;;0.82;;
75160;SDS011;63738;50.096;8.716;2022-11-20T11:47:00;18.17;;;3.33;;
75160;SDS011;63738;50.096;8.716;2022-11-20T11:49:28;7.82;;;0.88;;
75160;SDS011;63738;50.096;8.716;2022-11-20T12:00:05;9.05;;;0.77;;
75160;SDS011;63738;50.096;8.716;2022-11-20T12:02:42;6.82;;;0.73;;
75160;SDS011;63738;50.096;8.716;2022-11-20T12:13:59;8.50;;;0.85;;
75160;SDS011;63738;50.096;8.716;2022-11-20T12:16:30;8.70;;;0.57;;
75160;SDS011;63738;50.096;8.716;2022-11-20T12:19:00;9.32;;;1.02;;
75160;SDS011;63738;50.096;8.716;2022-11-20T12:21:29;9.50;;;1.23;;
75160;SDS011;63738;50.096;8.716;2022-11-20T12:35:36;13.57;;;1.95;;
75160;SDS011;63738;50.096;8.716;2022-11-20T12:38:48;10.93;;;1.25;;
75160;SDS011;63738;50.096;8.716;2022-11-20T12:44:38;6.38;;;0.65;;
75160;SDS011;63738;50.096;8.716;2022-11-20T12:53:03;9.00;;;0.77;;
75160;SDS011;63738;50.096;8.716;2022-11-20T13:01:10;8.75;;;0.60;;
75160;SDS011;63738;50.096;8.716;2022-11-20T13:04:16;7.53;;;0.73;;
75160;SDS011;63738;50.096;8.716;2022-11-20T13:06:54;8.65;;;0.98;;
75160;SDS011;63738;50.096;8.716;2022-11-20T13:09:20;11.27;;;1.13;;
75160;SDS011;63738;50.096;8.716;2022-11-20T13:14:30;10.32;;;0.82;;
75160;SDS011;63738;50.096;8.716;2022-11-20T13:19:55;10.70;;;1.02;;
75160;SDS011;63738;50.096;8.716;2022-11-20T13:22:26;5.97;;;0.30;;
75160;SDS011;63738;50.096;8.716;2022-11-20T13:24:53;10.82;;;1.00;;
75160;SDS011;63738;50.096;8.716;2022-11-20T13:27:22;7.78;;;0.47;;
75160;SDS011;63738;50.096;8.716;2022-11-20T13:29:59;10.38;;;0.63;;
75160;SDS011;63738;50.096;8.716;2022-11-20T13:32:47;9.82;;;0.50;;
75160;SDS011;63738;50.096;8.716;2022-11-20T13:35:32;6.47;;;0.22;;
75160;SDS011;63738;50.096;8.716;2022-11-20T13:37:59;6.93;;;0.80;;
75160;SDS011;63738;50.096;8.716;2022-11-20T13:40:25;6.45;;;0.60;;
75160;SDS011;63738;50.096;8.716;2022-11-20T13:42:55;10.45;;;0.70;;
75160;SDS011;63738;50.096;8.716;2022-11-20T13:45:25;5.78;;;0.38;;
75160;SDS011;63738;50.096;8.716;2022-11-20T13:47:54;5.68;;;0.40;;
75160;SDS011;63738;50.096;8.716;2022-11-20T13:50:44;5.30;;;0.40;;
75160;SDS011;63738;50.096;8.716;2022-11-20T13:53:20;7.72;;;0.60;;
75160;SDS011;63738;50.096;8.716;2022-11-20T13:56:24;6.90;;;0.28;;
75160;SDS011;63738;50.096;8.716;2022-11-20T14:01:58;7.03;;;0.55;;
75160;SDS011;63738;50.096;8.716;2022-11-20T14:04:29;8.45;;;0.45;;
75160;SDS011;63738;50.096;8.716;2022-11-20T14:06:58;10.30;;;0.70;;
75160;SDS011;63738;50.096;8.716;2022-11-20T14:11:51;6.15;;;0.40;;
75160;SDS011;63738;50.096;8.716;2022-11-20T14:14:18;8.48;;;0.57;;
75160;SDS011;63738;50.096;8.716;2022-11-20T14:16:45;8.23;;;0.40;;
75160;SDS011;63738;50.096;8.716;2022-11-20T14:22:35;5.72;;;0.43;;
75160;SDS011;63738;50.096;8.716;2022-11-20T14:24:42;9.43;;;0.30;;
75160;SDS011;63738;50.096;8.716;2022-11-20T14:27:15;6.30;;;0.22;;
75160;SDS011;63738;50.096;8.716;2022-11-20T14:29:45;5.97;;;0.20;;
75160;SDS011;63738;50.096;8.716;2022-11-20T14:32:14;4.78;;;0.40;;
75160;SDS011;63738;50.096;8.716;2022-11-20T14:34:43;7.07;;;0.20;;
75160;SDS011;63738;50.096;8.716;2022-11-20T14:37:11;4.30;;;0.32;;
75160;SDS011;63738;50.096;8.716;2022-11-20T14:39:42;5.68;;;0.32;;
75160;SDS011;63738;50.096;8.716;2022-11-20T14:42:17;6.65;;;0.40;;
75160;SDS011;63738;50.096;8.716;2022-11-20T14:44:44;5.30;;;0.30;;
75160;SDS011;63738;50.096;8.716;2022-11-20T14:47:12;7.72;;;0.40;;
75160;SDS011;63738;50.096;8.716;2022-11-20T14:49:40;7.32;;;0.40;;
75160;SDS011;63738;50.096;8.716;2022-11-20T14:52:11;6.45;;;0.43;;
75160;SDS011;63738;50.096;8.716;2022-11-20T14:54:58;6.75;;;0.40;;
75160;SDS011;63738;50.096;8.716;2022-11-20T14:57:31;7.10;;;0.40;;
75160;SDS011;63738;50.096;8.716;2022-11-20T15:02:44;6.28;;;0.32;;
75160;SDS011;63738;50.096;8.716;2022-11-20T15:05:11;6.22;;;0.57;;
75160;SDS011;63738;50.096;8.716;2022-11-20T15:10:24;8.52;;;0.98;;
75160;SDS011;63738;50.096;8.716;2022-11-20T15:12:52;8.10;;;0.35;;
75160;SDS011;63738;50.096;8.716;2022-11-20T15:15:26;12.50;;;1.08;;
75160;SDS011;63738;50.096;8.716;2022-11-20T15:17:59;6.53;;;0.47;;
75160;SDS011;63738;50.096;8.716;2022-11-20T15:20:28;7.40;;;0.50;;
75160;SDS011;63738;50.096;8.716;2022-11-20T15:22:56;6.32;;;0.38;;
75160;SDS011;63738;50.096;8.716;2022-11-20T15:25:22;8.02;;;0.60;;
75160;SDS011;63738;50.096;8.716;2022-11-20T15:27:49;5.80;;;0.52;;
75160;SDS011;63738;50.096;8.716;2022-11-20T15:30:20;7.10;;;0.60;;
75160;SDS011;63738;50.096;8.716;2022-11-20T15:32:46;7.88;;;0.20;;
75160;SDS011;63738;50.096;8.716;2022-11-20T15:35:12;4.93;;;0.25;;
75160;SDS011;63738;50.096;8.716;2022-11-20T15:37:39;5.32;;;0.40;;
75160;SDS011;63738;50.096;8.716;2022-11-20T15:42:32;5.72;;;0.28;;
75160;SDS011;63738;50.096;8.716;2022-11-20T15:44:59;6.30;;;0.30;;
75160;SDS011;63738;50.096;8.716;2022-11-20T15:47:25;6.03;;;0.30;;
75160;SDS011;63738;50.096;8.716;2022-11-20T15:49:53;7.28;;;0.40;;
75160;SDS011;63738;50.096;8.716;2022-11-20T15:52:19;6.63;;;0.20;;
75160;SDS011;63738;50.096;8.716;2022-11-20T15:54:44;7.43;;;0.28;;
75160;SDS011;63738;50.096;8.716;2022-11-20T15:57:10;6.88;;;0.47;;
75160;SDS011;63738;50.096;8.716;2022-11-20T15:59:36;7.20;;;0.28;;
75160;SDS011;63738;50.096;8.716;2022-11-20T16:02:14;6.43;;;0.40;;
75160;SDS011;63738;50.096;8.716;2022-11-20T16:04:40;5.57;;;0.22;;
75160;SDS011;63738;50.096;8.716;2022-11-20T16:07:06;5.45;;;0.40;;
75160;SDS011;63738;50.096;8.716;2022-11-20T16:09:32;4.57;;;0.30;;
75160;SDS011;63738;50.096;8.716;2022-11-20T16:11:57;7.63;;;0.30;;
75160;SDS011;63738;50.096;8.716;2022-11-20T16:14:26;6.00;;;0.10;;
75160;SDS011;63738;50.096;8.716;2022-11-20T16:17:11;6.32;;;0.40;;
75160;SDS011;63738;50.096;8.716;2022-11-20T16:19:36;7.05;;;0.38;;
75160;SDS011;63738;50.096;8.716;2022-11-20T16:22:02;3.65;;;0.30;;
75160;SDS011;63738;50.096;8.716;2022-11-20T16:24:28;4.47;;;0.30;;
75160;SDS011;63738;50.096;8.716;2022-11-20T16:26:54;4.78;;;0.35;;
75160;SDS011;63738;50.096;8.716;2022-11-20T16:29:20;4.53;;;0.30;;
75160;SDS011;63738;50.096;8.716;2022-11-20T16:31:45;6.50;;;0.38;;
75160;SDS011;63738;50.096;8.716;2022-11-20T16:34:11;6.70;;;0.68;;
75160;SDS011;63738;50.096;8.716;2022-11-20T16:36:40;4.45;;;0.10;;
75160;SDS011;63738;50.096;8.716;2022-11-20T16:39:07;4.65;;;0.22;;
75160;SDS011;63738;50.096;8.716;2022-11-20T16:41:33;6.93;;;0.52;;
75160;SDS011;63738;50.096;8.716;2022-11-20T16:44:00;6.38;;;0.50;;
75160;SDS011;63738;50.096;8.716;2022-11-20T16:46:30;5.78;;;0.40;;
75160;SDS011;63738;50.096;8.716;2022-11-20T16:48:58;5.43;;;0.40;;
75160;SDS011;63738;50.096;8.716;2022-11-20T16:51:50;5.72;;;0.30;;
75160;SDS011;63738;50.096;8.716;2022-11-20T16:54:15;5.90;;;0.10;;
75160;SDS011;63738;50.096;8.716;2022-11-20T16:56:41;4.55;;;0.35;;
75160;SDS011;63738;50.096;8.716;2022-11-20T16:59:07;4.60;;;0.13;;
75160;SDS011;63738;50.096;8.716;2022-11-20T17:01:32;4.88;;;0.10;;